Time;durP1;ratioP1;P1;durP2;ratioP2;P2;SDS_P1;SDS_P2;PMS_P1;PMS_P2;Temp;Humidity;BMP_temperature;BMP_pressure;BME280_temperature;BME280_humidity;BME280_pressure;Samples;Min_cycle;Max_cycle;Signal;HPM_P1;HPM_P2
2022/08/03 00:01:38;;;;;;;20.60;4.18;;;18.10;99.90;;;;;;5072138;28;20407;-49
2022/08/03 00:04:05;;;;;;;11.00;3.08;;;18.10;99.90;;;;;;5071924;28;20028;-48
2022/08/03 00:06:31;;;;;;;11.35;3.50;;;18.00;99.90;;;;;;5071955;28;20108;-53
2022/08/03 00:08:56;;;;;;;10.23;3.55;;;18.00;99.90;;;;;;5070413;28;20155;-48
2022/08/03 00:11:22;;;;;;;12.88;3.53;;;18.00;99.90;;;;;;5071895;28;20140;-50
2022/08/03 00:13:48;;;;;;;11.35;3.67;;;18.00;99.90;;;;;;5071676;28;20025;-46
2022/08/03 00:16:14;;;;;;;12.05;3.45;;;18.00;99.90;;;;;;5057552;28;20028;-50
2022/08/03 00:18:40;;;;;;;11.23;3.15;;;18.00;99.90;;;;;;5071773;28;20016;-47
2022/08/03 00:21:06;;;;;;;8.95;3.00;;;18.00;99.90;;;;;;5071302;28;20742;-49
2022/08/03 00:23:32;;;;;;;14.63;3.60;;;17.90;99.90;;;;;;5071528;28;20044;-54
2022/08/03 00:25:58;;;;;;;10.80;3.47;;;17.90;99.90;;;;;;5071522;28;20121;-47
2022/08/03 00:28:23;;;;;;;13.38;4.00;;;17.80;99.90;;;;;;5071351;28;20036;-47
2022/08/03 00:30:49;;;;;;;17.13;4.10;;;17.80;99.90;;;;;;5071630;28;20025;-55
2022/08/03 00:33:15;;;;;;;10.88;3.50;;;17.80;99.90;;;;;;5071295;28;20110;-48
2022/08/03 00:35:41;;;;;;;15.48;3.40;;;17.80;99.90;;;;;;5071214;28;20075;-52
2022/08/03 00:38:07;;;;;;;13.20;3.38;;;17.90;99.90;;;;;;5071200;28;20048;-47
2022/08/03 00:40:33;;;;;;;12.50;3.47;;;17.90;99.90;;;;;;5071436;28;20099;-51
2022/08/03 00:43:05;;;;;;;10.25;3.38;;;17.90;99.90;;;;;;5071204;28;20017;-47
2022/08/03 00:45:36;;;;;;;14.70;3.83;;;17.90;99.90;;;;;;5057191;28;20029;-53
2022/08/03 00:48:03;;;;;;;9.07;3.70;;;18.00;99.90;;;;;;5071141;28;20031;-53
2022/08/03 00:50:33;;;;;;;13.48;3.67;;;18.00;99.90;;;;;;5070900;28;20072;-47
2022/08/03 00:53:00;;;;;;;11.80;3.45;;;18.00;99.90;;;;;;5071596;28;20033;-53
2022/08/03 00:55:26;;;;;;;14.45;3.70;;;18.00;99.90;;;;;;5071080;28;20547;-50
2022/08/03 00:57:53;;;;;;;19.58;4.07;;;18.00;99.90;;;;;;5071068;28;20021;-47
2022/08/03 01:00:21;;;;;;;10.05;3.75;;;18.10;99.90;;;;;;5071082;28;20028;-50
2022/08/03 01:02:47;;;;;;;9.80;3.20;;;18.20;99.90;;;;;;5071097;28;20104;-53
2022/08/03 01:05:13;;;;;;;11.73;3.45;;;18.20;99.90;;;;;;5070775;28;20115;-52
2022/08/03 01:08:10;;;;;;;13.13;3.10;;;18.30;99.90;;;;;;5071020;28;20051;-51
2022/08/03 01:10:44;;;;;;;14.93;3.53;;;18.40;99.90;;;;;;5070844;28;20025;-47
2022/08/03 01:13:35;;;;;;;13.85;3.30;;;18.40;99.90;;;;;;5070967;28;20028;-47
2022/08/03 01:16:08;;;;;;;15.07;3.35;;;18.50;99.90;;;;;;5056829;28;20021;-49
2022/08/03 01:18:43;;;;;;;13.77;3.53;;;18.60;99.90;;;;;;5071044;28;20103;-47
2022/08/03 01:21:15;;;;;;;15.57;3.53;;;18.60;99.90;;;;;;5070550;28;20487;-50
2022/08/03 01:23:52;;;;;;;8.68;3.38;;;18.60;99.90;;;;;;5070655;28;20029;-49
2022/08/03 01:26:29;;;;;;;14.30;3.53;;;18.60;99.90;;;;;;5070757;28;20035;-48
2022/08/03 01:29:37;;;;;;;10.02;3.20;;;18.60;99.90;;;;;;5070836;28;20415;-53
2022/08/03 01:32:15;;;;;;;8.40;2.88;;;18.70;99.90;;;;;;5058522;28;20020;-51
2022/08/03 01:34:46;;;;;;;11.60;2.58;;;18.70;99.90;;;;;;5070549;28;20051;-47
2022/08/03 01:37:18;;;;;;;13.27;2.88;;;18.70;99.90;;;;;;5070969;28;20028;-47
2022/08/03 01:39:44;;;;;;;10.65;2.80;;;18.70;99.90;;;;;;5070704;28;20033;-47
2022/08/03 01:42:12;;;;;;;9.68;3.05;;;18.70;99.90;;;;;;5070760;28;20025;-49
2022/08/03 01:44:41;;;;;;;9.68;3.15;;;18.70;99.90;;;;;;5070628;28;20040;-51
2022/08/03 01:47:08;;;;;;;12.15;3.70;;;18.80;99.90;;;;;;5073105;28;20463;-47
2022/08/03 01:49:39;;;;;;;13.23;3.47;;;18.80;99.90;;;;;;5074589;28;20029;-49
2022/08/03 01:52:06;;;;;;;11.43;3.08;;;18.80;99.90;;;;;;5074096;28;20552;-50
2022/08/03 01:54:36;;;;;;;13.95;2.80;;;18.70;99.90;;;;;;5074724;28;20035;-49
2022/08/03 01:57:02;;;;;;;8.77;2.63;;;18.70;99.90;;;;;;5074385;28;20024;-47
2022/08/03 01:59:31;;;;;;;10.05;2.80;;;18.80;99.90;;;;;;5074467;28;20031;-49
2022/08/03 02:01:58;;;;;;;11.57;2.47;;;18.80;99.90;;;;;;5074358;28;20021;-52
2022/08/03 02:04:26;;;;;;;10.98;3.05;;;18.70;99.90;;;;;;5074250;28;20024;-47
2022/08/03 02:06:53;;;;;;;15.82;3.03;;;18.70;99.90;;;;;;5074301;28;20059;-50
2022/08/03 02:09:21;;;;;;;16.73;3.40;;;18.80;99.90;;;;;;5072826;28;20082;-49
2022/08/03 02:11:47;;;;;;;12.07;2.40;;;18.80;99.90;;;;;;5074199;28;20029;-47
2022/08/03 02:14:15;;;;;;;15.52;2.90;;;18.80;99.90;;;;;;5073359;28;20116;-47
2022/08/03 02:16:43;;;;;;;11.05;3.20;;;18.90;99.90;;;;;;5061262;28;20028;-51
2022/08/03 02:19:10;;;;;;;16.83;3.50;;;18.90;99.90;;;;;;5074218;28;20067;-54
2022/08/03 02:21:37;;;;;;;12.35;3.70;;;18.90;99.90;;;;;;5073614;28;20475;-51
2022/08/03 02:24:04;;;;;;;13.10;3.35;;;18.90;99.90;;;;;;5073893;28;20420;-55
2022/08/03 02:26:30;;;;;;;14.45;3.20;;;18.90;99.90;;;;;;5073720;28;20024;-51
2022/08/03 02:29:03;;;;;;;12.23;4.05;;;18.90;99.90;;;;;;5072514;28;20053;-50
2022/08/03 02:31:33;;;;;;;15.30;3.47;;;18.90;99.90;;;;;;5073667;28;20103;-52
2022/08/03 02:34:03;;;;;;;14.77;3.67;;;18.90;99.90;;;;;;5072471;28;20075;-50
2022/08/03 02:36:33;;;;;;;13.38;3.30;;;18.90;99.90;;;;;;5073721;28;20104;-48
2022/08/03 02:39:00;;;;;;;15.02;3.65;;;18.90;99.90;;;;;;5073762;28;20036;-46
2022/08/03 02:41:40;;;;;;;12.93;3.40;;;18.90;99.90;;;;;;5073170;28;20028;-50
2022/08/03 02:44:11;;;;;;;9.80;2.83;;;18.90;99.90;;;;;;5073541;28;20039;-49
2022/08/03 02:46:44;;;;;;;9.90;2.80;;;18.90;99.90;;;;;;5072279;28;20028;-53
2022/08/03 02:49:11;;;;;;;16.73;3.63;;;18.90;99.90;;;;;;5072948;28;20027;-48
2022/08/03 02:51:38;;;;;;;9.90;2.90;;;18.90;99.90;;;;;;5073373;28;20025;-47
2022/08/03 02:54:05;;;;;;;9.55;2.65;;;18.90;99.90;;;;;;5073580;28;20020;-51
2022/08/03 02:56:33;;;;;;;10.98;2.65;;;18.90;99.90;;;;;;5073278;28;20426;-48
2022/08/03 02:58:59;;;;;;;11.23;2.90;;;18.90;99.90;;;;;;5073139;28;20499;-52
2022/08/03 03:01:27;;;;;;;10.70;2.80;;;18.90;99.90;;;;;;5073409;28;20036;-50
2022/08/03 03:03:56;;;;;;;10.98;3.00;;;18.80;99.90;;;;;;5073062;28;20020;-50
2022/08/03 03:06:24;;;;;;;13.23;2.73;;;18.80;99.90;;;;;;5073147;28;20074;-49
2022/08/03 03:08:51;;;;;;;8.73;3.03;;;18.80;99.90;;;;;;5073023;28;20025;-50
2022/08/03 03:11:19;;;;;;;11.73;3.35;;;18.80;99.90;;;;;;5073214;28;20024;-50
2022/08/03 03:13:47;;;;;;;10.93;2.73;;;18.80;99.90;;;;;;5071589;28;20020;-51
2022/08/03 03:16:14;;;;;;;8.68;2.58;;;18.80;99.90;;;;;;5060299;28;20025;-53
2022/08/03 03:18:41;;;;;;;11.23;3.28;;;18.80;99.90;;;;;;5066135;28;20029;-52
2022/08/03 03:21:09;;;;;;;8.35;2.80;;;18.80;99.90;;;;;;5055249;28;20025;-50
2022/08/03 03:23:37;;;;;;;8.77;2.67;;;18.80;99.90;;;;;;5071240;28;20032;-48
2022/08/03 03:26:03;;;;;;;11.77;3.30;;;18.80;99.90;;;;;;5060933;28;20040;-49
2022/08/03 03:28:30;;;;;;;10.57;3.03;;;18.80;99.90;;;;;;5072937;28;20024;-50
2022/08/03 03:30:56;;;;;;;16.35;3.42;;;18.80;99.90;;;;;;5064128;28;20066;-49
2022/08/03 03:33:22;;;;;;;6.25;2.40;;;18.80;99.90;;;;;;5060416;28;20025;-47
2022/08/03 03:35:48;;;;;;;12.77;2.70;;;18.70;99.90;;;;;;5070422;28;20036;-51
2022/08/03 03:38:14;;;;;;;18.58;2.92;;;18.70;99.90;;;;;;5072410;28;20028;-51
2022/08/03 03:40:40;;;;;;;7.50;2.47;;;18.70;99.90;;;;;;5066986;28;20063;-48
2022/08/03 03:43:08;;;;;;;11.45;2.63;;;18.70;99.90;;;;;;5072408;28;20028;-54
2022/08/03 03:45:34;;;;;;;10.98;2.78;;;18.70;99.90;;;;;;5071866;28;20043;-56
2022/08/03 03:48:02;;;;;;;11.70;2.88;;;18.70;99.90;;;;;;5072353;28;20017;-56
2022/08/03 03:50:29;;;;;;;8.73;2.65;;;18.70;99.90;;;;;;5066540;28;20032;-57
2022/08/03 03:52:55;;;;;;;5.90;2.50;;;18.70;99.90;;;;;;5072398;28;20047;-53
2022/08/03 03:55:21;;;;;;;10.50;2.67;;;18.70;99.90;;;;;;5072033;28;20392;-47
2022/08/03 03:57:47;;;;;;;10.32;2.45;;;18.70;99.90;;;;;;5072098;28;20048;-50
2022/08/03 04:00:14;;;;;;;8.95;2.70;;;18.70;99.90;;;;;;5071739;28;20068;-51
2022/08/03 04:02:40;;;;;;;5.10;2.20;;;18.70;99.90;;;;;;5071574;28;20050;-46
2022/08/03 04:10:57;;;;;;;9.32;2.85;;;18.60;99.90;;;;;;5071519;28;20031;-47
2022/08/03 04:13:30;;;;;;;10.93;2.83;;;18.60;99.90;;;;;;5071919;28;20464;-50
2022/08/03 04:15:57;;;;;;;6.72;2.05;;;18.60;99.90;;;;;;5071777;28;20036;-49
2022/08/03 04:18:26;;;;;;;9.38;2.67;;;18.60;99.90;;;;;;5071809;28;20056;-51
2022/08/03 04:20:53;;;;;;;9.80;2.42;;;18.70;99.90;;;;;;5069990;28;20066;-49
2022/08/03 04:23:24;;;;;;;14.38;2.67;;;18.60;99.90;;;;;;5069808;28;20025;-48
2022/08/03 04:25:50;;;;;;;10.05;2.45;;;18.60;99.90;;;;;;5062057;28;20602;-48
2022/08/03 04:28:18;;;;;;;11.45;2.53;;;18.60;99.90;;;;;;5071558;28;20047;-46
2022/08/03 04:30:47;;;;;;;7.50;2.30;;;18.60;99.90;;;;;;5071352;28;20118;-51
2022/08/03 04:33:15;;;;;;;9.40;2.40;;;18.60;99.90;;;;;;5071561;28;20036;-50
2022/08/03 04:35:42;;;;;;;8.48;2.28;;;18.60;99.90;;;;;;5071006;28;20020;-51
2022/08/03 04:38:08;;;;;;;11.52;2.72;;;18.60;99.90;;;;;;5071530;28;20067;-47
2022/08/03 04:40:37;;;;;;;9.77;2.40;;;18.60;99.90;;;;;;5071249;28;20024;-47
2022/08/03 04:43:04;;;;;;;12.45;3.05;;;18.60;99.90;;;;;;5071507;28;20028;-47
2022/08/03 04:45:31;;;;;;;9.88;2.67;;;18.60;99.90;;;;;;5070861;28;20032;-52
2022/08/03 04:47:58;;;;;;;8.45;2.47;;;18.60;99.90;;;;;;5071216;28;20028;-47
2022/08/03 04:50:26;;;;;;;10.18;2.53;;;18.60;99.90;;;;;;5069511;28;20426;-47
2022/08/03 04:52:52;;;;;;;9.95;2.40;;;18.60;99.90;;;;;;5071432;28;20052;-50
2022/08/03 04:55:28;;;;;;;9.68;2.60;;;18.60;99.90;;;;;;5070915;28;20465;-50
2022/08/03 04:57:55;;;;;;;13.43;2.90;;;18.60;99.90;;;;;;5057598;28;20021;-53
2022/08/03 05:00:21;;;;;;;8.13;2.47;;;18.60;99.90;;;;;;5070907;28;20499;-51
2022/08/03 05:02:46;;;;;;;12.32;3.70;;;18.60;99.90;;;;;;5071016;28;20031;-52
2022/08/03 05:05:12;;;;;;;10.07;2.50;;;18.70;99.90;;;;;;5070774;28;20036;-51
2022/08/03 05:07:38;;;;;;;10.82;2.40;;;18.70;99.90;;;;;;5070833;28;20024;-49
2022/08/03 05:10:08;;;;;;;16.17;2.70;;;18.70;99.90;;;;;;5070860;28;20043;-53
2022/08/03 05:12:34;;;;;;;10.90;3.03;;;18.70;99.90;;;;;;5070782;28;20475;-46
2022/08/03 05:15:00;;;;;;;10.88;2.95;;;18.70;99.90;;;;;;5070951;28;20025;-53
2022/08/03 05:17:27;;;;;;;10.63;2.95;;;18.70;99.90;;;;;;5070737;28;20116;-47
2022/08/03 05:19:54;;;;;;;9.32;2.67;;;18.70;99.90;;;;;;5070876;28;20031;-46
2022/08/03 05:22:20;;;;;;;10.70;2.58;;;18.80;99.90;;;;;;5070862;28;20020;-50
2022/08/03 05:24:46;;;;;;;10.35;3.00;;;18.80;99.90;;;;;;5056895;28;20033;-55
2022/08/03 05:27:17;;;;;;;11.32;2.75;;;18.80;99.90;;;;;;5070431;28;20372;-54
2022/08/03 05:29:44;;;;;;;9.00;3.30;;;18.80;99.90;;;;;;5070717;28;20024;-48
2022/08/03 05:32:09;;;;;;;11.93;3.10;;;18.90;99.90;;;;;;5070653;28;20020;-47
2022/08/03 05:34:35;;;;;;;10.48;2.60;;;18.90;99.90;;;;;;5070686;28;20053;-53
2022/08/03 05:37:01;;;;;;;9.70;3.13;;;18.90;99.90;;;;;;5070857;28;20452;-47
2022/08/03 05:39:26;;;;;;;10.85;2.42;;;18.90;99.90;;;;;;5070894;28;20111;-49
2022/08/03 05:41:52;;;;;;;10.45;2.80;;;19.00;99.90;;;;;;5070385;28;20481;-53
2022/08/03 05:44:18;;;;;;;15.25;2.67;;;19.00;99.90;;;;;;5070519;28;20082;-47
2022/08/03 05:46:43;;;;;;;9.90;2.50;;;19.00;99.90;;;;;;5070738;28;20090;-49
2022/08/03 05:49:09;;;;;;;12.93;2.78;;;19.10;99.90;;;;;;5070454;28;20099;-53
2022/08/03 05:51:35;;;;;;;12.73;2.83;;;19.10;99.90;;;;;;5070759;28;20028;-47
2022/08/03 05:54:02;;;;;;;11.98;2.90;;;19.10;99.90;;;;;;5070448;28;20471;-47
2022/08/03 05:56:27;;;;;;;10.63;2.47;;;19.10;99.90;;;;;;5069395;28;20407;-46
2022/08/03 05:58:53;;;;;;;12.38;3.10;;;19.10;99.90;;;;;;5070464;28;20107;-51
2022/08/03 06:01:22;;;;;;;12.02;2.45;;;19.10;99.90;;;;;;5070721;28;20101;-53
2022/08/03 06:03:49;;;;;;;8.20;2.75;;;19.20;99.90;;;;;;5070521;28;20484;-48
2022/08/03 06:06:15;;;;;;;11.95;2.67;;;19.30;99.90;;;;;;5070578;28;20032;-54
2022/08/03 06:08:42;;;;;;;8.98;2.40;;;19.30;99.90;;;;;;5070637;28;20211;-50
2022/08/03 06:11:07;;;;;;;12.60;3.08;;;19.30;99.90;;;;;;5070139;28;20543;-54
2022/08/03 06:13:34;;;;;;;12.88;2.70;;;19.30;99.90;;;;;;5070328;28;20033;-47
2022/08/03 06:16:00;;;;;;;15.02;3.25;;;19.40;99.90;;;;;;5070330;28;20032;-50
2022/08/03 06:18:25;;;;;;;10.65;2.72;;;19.30;99.90;;;;;;5070581;28;20029;-50
2022/08/03 06:20:52;;;;;;;9.52;2.60;;;19.20;99.90;;;;;;5070394;28;20551;-54
2022/08/03 06:23:18;;;;;;;10.50;2.65;;;19.20;99.90;;;;;;5068836;28;20363;-54
2022/08/03 06:25:43;;;;;;;6.97;2.47;;;19.20;99.90;;;;;;5057717;28;20031;-51
2022/08/03 06:28:09;;;;;;;11.25;2.38;;;19.20;99.90;;;;;;5070260;28;20028;-49
2022/08/03 06:30:35;;;;;;;7.72;2.13;;;19.20;99.90;;;;;;5070178;28;20024;-53
2022/08/03 06:33:01;;;;;;;6.85;1.80;;;19.30;99.90;;;;;;5072173;28;20017;-47
2022/08/03 06:35:27;;;;;;;9.38;2.20;;;19.20;99.90;;;;;;5073696;28;20364;-49
2022/08/03 06:37:53;;;;;;;7.43;2.10;;;19.20;99.90;;;;;;5073788;28;20028;-50
2022/08/03 06:40:28;;;;;;;7.47;2.10;;;19.20;99.90;;;;;;5073420;28;20029;-48
2022/08/03 06:42:55;;;;;;;6.28;2.05;;;19.20;99.90;;;;;;5073971;28;20023;-50
2022/08/03 06:45:21;;;;;;;7.13;2.28;;;19.30;99.90;;;;;;5073700;28;20050;-52
2022/08/03 06:47:46;;;;;;;5.70;2.30;;;19.40;99.90;;;;;;5073824;28;20024;-51
2022/08/03 06:50:12;;;;;;;8.68;2.53;;;19.40;99.90;;;;;;5073617;28;20379;-50
2022/08/03 06:52:37;;;;;;;3.13;1.50;;;19.40;99.90;;;;;;5073506;28;20059;-49
2022/08/03 06:55:04;;;;;;;5.45;1.80;;;19.50;99.90;;;;;;5073570;28;20032;-49
2022/08/03 06:57:30;;;;;;;7.97;2.15;;;19.60;99.90;;;;;;5073267;28;20025;-47
2022/08/03 07:00:00;;;;;;;7.70;1.65;;;19.70;99.90;;;;;;5073346;28;20047;-52
2022/08/03 07:02:29;;;;;;;8.05;1.80;;;19.80;99.90;;;;;;5073039;28;20089;-50
2022/08/03 07:04:55;;;;;;;8.73;2.35;;;19.90;99.90;;;;;;5068345;28;20032;-49
2022/08/03 07:07:20;;;;;;;9.93;2.58;;;20.00;99.90;;;;;;5063382;28;20127;-48
2022/08/03 07:09:49;;;;;;;11.23;2.67;;;20.10;99.90;;;;;;5072702;28;20142;-50
2022/08/03 07:12:15;;;;;;;11.50;2.80;;;20.20;99.90;;;;;;5073178;28;20372;-48
2022/08/03 07:14:40;;;;;;;8.93;2.63;;;20.20;99.90;;;;;;5072851;28;20544;-53
2022/08/03 07:17:06;;;;;;;10.93;2.85;;;20.30;99.90;;;;;;5072156;28;20560;-52
2022/08/03 07:19:32;;;;;;;11.13;2.33;;;20.40;99.90;;;;;;5072915;28;20020;-52
2022/08/03 07:21:58;;;;;;;9.25;2.03;;;20.30;99.90;;;;;;5072924;28;20155;-54
2022/08/03 07:24:23;;;;;;;11.05;2.30;;;20.30;99.90;;;;;;5062133;28;20104;-55
2022/08/03 07:26:49;;;;;;;8.90;2.08;;;20.40;99.90;;;;;;5069156;28;20054;-51
2022/08/03 07:29:15;;;;;;;8.02;1.85;;;20.40;99.90;;;;;;5072904;28;20029;-51
2022/08/03 07:31:41;;;;;;;9.73;1.90;;;20.50;99.90;;;;;;5071085;28;20028;-54
2022/08/03 07:34:06;;;;;;;5.45;1.60;;;20.50;99.90;;;;;;5071858;28;20131;-48
2022/08/03 07:36:32;;;;;;;7.90;1.80;;;20.50;99.90;;;;;;5071828;28;20063;-51
2022/08/03 07:38:58;;;;;;;6.32;1.92;;;20.60;99.90;;;;;;5070387;28;20055;-54
2022/08/03 07:41:23;;;;;;;9.05;2.30;;;20.70;99.90;;;;;;5071877;28;20024;-57
2022/08/03 07:43:49;;;;;;;6.30;2.00;;;20.70;99.90;;;;;;5070460;28;20040;-48
2022/08/03 07:46:15;;;;;;;6.82;2.05;;;20.70;99.90;;;;;;5071578;28;20041;-50
2022/08/03 07:48:41;;;;;;;4.88;1.85;;;20.70;99.90;;;;;;5071284;28;20021;-47
2022/08/03 07:51:06;;;;;;;7.10;1.90;;;20.80;99.90;;;;;;5070435;28;20132;-47
2022/08/03 07:53:32;;;;;;;7.65;1.73;;;20.90;99.90;;;;;;5071641;28;20017;-51
2022/08/03 07:55:58;;;;;;;10.20;1.70;;;21.00;99.90;;;;;;5070834;28;20024;-53
2022/08/03 07:58:23;;;;;;;4.93;1.33;;;21.00;99.90;;;;;;5070214;28;20103;-48
2022/08/03 08:00:51;;;;;;;5.90;1.92;;;21.20;99.90;;;;;;5069894;28;20035;-53
2022/08/03 08:03:17;;;;;;;5.93;1.85;;;21.10;99.90;;;;;;5063914;28;20111;-55
2022/08/03 08:05:43;;;;;;;4.78;1.75;;;21.00;99.90;;;;;;5070257;28;20077;-50
2022/08/03 08:08:09;;;;;;;8.63;1.90;;;21.00;99.90;;;;;;5070671;28;20024;-48
2022/08/03 08:10:35;;;;;;;9.07;1.83;;;21.00;99.90;;;;;;5069803;28;20050;-50
2022/08/03 08:13:01;;;;;;;7.57;2.20;;;21.00;99.90;;;;;;5065779;28;20528;-49
2022/08/03 08:15:27;;;;;;;10.68;2.42;;;20.80;99.90;;;;;;5068413;28;20075;-47
2022/08/03 08:17:55;;;;;;;10.68;2.55;;;20.80;99.90;;;;;;5068058;28;20040;-55
2022/08/03 08:20:23;;;;;;;8.60;2.38;;;20.70;99.90;;;;;;5069849;28;20021;-53
2022/08/03 08:22:48;;;;;;;8.23;2.75;;;20.80;99.90;;;;;;5070146;28;20025;-48
2022/08/03 08:25:15;;;;;;;9.75;2.45;;;20.80;99.90;;;;;;5065529;28;20051;-52
2022/08/03 08:27:46;;;;;;;13.52;2.75;;;20.80;99.90;;;;;;5070689;28;20024;-51
2022/08/03 08:30:13;;;;;;;7.32;2.30;;;20.80;99.90;;;;;;5070573;28;20535;-51
2022/08/03 08:32:39;;;;;;;9.57;2.42;;;21.00;99.90;;;;;;5071451;28;20025;-48
2022/08/03 08:35:06;;;;;;;8.52;2.67;;;21.00;99.90;;;;;;5070992;28;20048;-49
2022/08/03 08:37:32;;;;;;;13.27;3.50;;;21.00;99.90;;;;;;5067133;28;20024;-50
2022/08/03 08:39:58;;;;;;;11.50;2.80;;;21.00;99.90;;;;;;5054918;28;20040;-49
2022/08/03 08:42:24;;;;;;;8.57;3.05;;;21.00;99.90;;;;;;5061235;28;20036;-53
2022/08/03 08:44:50;;;;;;;7.40;2.70;;;21.10;99.90;;;;;;5054867;28;20060;-49
2022/08/03 08:47:19;;;;;;;10.07;3.05;;;21.20;99.90;;;;;;5059510;28;20047;-47
2022/08/03 08:49:47;;;;;;;7.65;3.08;;;21.10;99.90;;;;;;5055845;28;20025;-48
2022/08/03 08:52:13;;;;;;;8.10;2.90;;;21.10;99.90;;;;;;5056786;28;20029;-53
2022/08/03 08:54:43;;;;;;;6.57;2.67;;;21.10;99.90;;;;;;5062225;28;20035;-52
2022/08/03 08:57:09;;;;;;;10.88;2.58;;;21.20;99.90;;;;;;5069851;28;20024;-52
2022/08/03 08:59:36;;;;;;;6.75;2.42;;;21.30;99.90;;;;;;5062997;28;20070;-52
2022/08/03 09:02:02;;;;;;;6.82;2.25;;;21.40;99.90;;;;;;5059495;28;20024;-48
2022/08/03 09:04:29;;;;;;;7.85;2.15;;;21.50;99.90;;;;;;5059423;28;20040;-51
2022/08/03 09:06:55;;;;;;;6.65;2.38;;;21.60;99.90;;;;;;5069753;28;20032;-52
2022/08/03 09:09:21;;;;;;;11.38;3.15;;;21.90;99.90;;;;;;5069877;28;20103;-46
2022/08/03 09:11:50;;;;;;;10.05;3.13;;;21.80;99.90;;;;;;5068903;28;20450;-49
2022/08/03 09:14:15;;;;;;;11.50;3.65;;;21.70;99.90;;;;;;5064699;28;20107;-46
2022/08/03 09:17:01;;;;;;;14.07;3.28;;;21.60;99.90;;;;;;5068928;28;20131;-47
2022/08/03 09:19:31;;;;;;;10.95;2.88;;;21.70;99.90;;;;;;5069585;28;20062;-52
2022/08/03 09:22:12;;;;;;;9.25;3.30;;;21.70;99.90;;;;;;5070285;28;20411;-46
2022/08/03 09:24:53;;;;;;;10.25;2.85;;;21.50;99.90;;;;;;5057963;28;20476;-46
2022/08/03 09:27:19;;;;;;;11.50;2.50;;;21.60;99.90;;;;;;5057395;28;20028;-50
2022/08/03 09:29:53;;;;;;;10.95;2.60;;;21.80;99.90;;;;;;5070638;28;20025;-46
2022/08/03 09:32:21;;;;;;;6.75;2.15;;;21.90;99.90;;;;;;5070822;28;20532;-47
2022/08/03 09:34:51;;;;;;;8.40;2.45;;;22.10;99.90;;;;;;5070365;28;20075;-54
2022/08/03 09:37:19;;;;;;;10.40;2.45;;;22.30;99.90;;;;;;5069235;28;20021;-46
2022/08/03 09:39:46;;;;;;;10.43;2.50;;;22.30;99.90;;;;;;5069909;28;20379;-47
2022/08/03 09:42:21;;;;;;;6.85;2.33;;;22.50;99.90;;;;;;5059978;28;20040;-53
2022/08/03 09:44:48;;;;;;;11.75;2.60;;;22.70;99.90;;;;;;5068189;28;20037;-54
2022/08/03 09:47:29;;;;;;;10.32;2.10;;;22.70;99.90;;;;;;5065036;28;20491;-47
2022/08/03 09:50:00;;;;;;;8.25;2.63;;;22.60;99.70;;;;;;5070224;28;20021;-50
2022/08/03 09:52:32;;;;;;;7.22;2.33;;;22.70;99.50;;;;;;5060636;28;20435;-46
2022/08/03 09:54:59;;;;;;;9.35;2.30;;;22.80;99.70;;;;;;5056657;28;20466;-46
2022/08/03 09:57:26;;;;;;;7.22;1.90;;;22.90;99.30;;;;;;5053609;28;20025;-49
2022/08/03 09:59:57;;;;;;;7.95;2.05;;;23.30;99.90;;;;;;5056899;28;20025;-53
2022/08/03 10:02:26;;;;;;;10.65;2.55;;;23.50;98.70;;;;;;5066923;28;20020;-53
2022/08/03 10:04:53;;;;;;;7.35;2.15;;;23.90;97.80;;;;;;5059085;28;20032;-49
2022/08/03 10:07:21;;;;;;;11.07;2.55;;;24.20;97.40;;;;;;5065252;28;20017;-48
2022/08/03 10:09:57;;;;;;;10.20;2.58;;;24.20;97.00;;;;;;5063425;28;20028;-50
2022/08/03 10:12:23;;;;;;;7.32;1.98;;;24.60;96.90;;;;;;5088942;28;20031;-46
2022/08/03 10:14:51;;;;;;;8.77;2.17;;;24.70;96.00;;;;;;5073326;28;20024;-55
2022/08/03 10:17:17;;;;;;;8.50;1.98;;;25.00;96.50;;;;;;5073533;28;20021;-48
2022/08/03 10:19:43;;;;;;;6.85;1.58;;;25.30;95.40;;;;;;5074105;28;20031;-57
2022/08/03 10:22:23;;;;;;;7.68;1.92;;;25.60;95.30;;;;;;5072379;28;20036;-53
2022/08/03 10:25:01;;;;;;;6.50;1.55;;;25.60;94.50;;;;;;5071891;28;20028;-54
2022/08/03 10:27:32;;;;;;;4.70;1.67;;;25.70;94.20;;;;;;5059898;28;20033;-48
2022/08/03 10:30:04;;;;;;;7.68;1.95;;;26.10;93.70;;;;;;5057656;28;20112;-56
2022/08/03 10:32:34;;;;;;;5.22;1.77;;;26.40;92.90;;;;;;5069454;28;20424;-50
2022/08/03 10:35:06;;;;;;;5.80;2.00;;;26.70;92.70;;;;;;5071948;28;20060;-50
2022/08/03 10:37:40;;;;;;;8.73;2.05;;;26.70;92.30;;;;;;5069609;28;20025;-45
2022/08/03 10:40:08;;;;;;;9.88;2.40;;;27.20;92.60;;;;;;5071391;28;20028;-59
2022/08/03 10:42:36;;;;;;;11.25;2.30;;;28.00;91.20;;;;;;5073184;28;20021;-47
2022/08/03 10:45:11;;;;;;;7.47;1.73;;;28.70;90.40;;;;;;5071048;28;20068;-55
2022/08/03 10:47:39;;;;;;;9.45;2.30;;;29.20;88.40;;;;;;5070168;28;20024;-55
2022/08/03 10:50:06;;;;;;;7.85;1.75;;;29.20;85.60;;;;;;5070880;28;20028;-52
2022/08/03 10:52:32;;;;;;;6.57;2.13;;;29.00;87.70;;;;;;5062515;28;20024;-51
2022/08/03 10:57:43;;;;;;;9.13;2.42;;;28.40;88.60;;;;;;5059752;28;20084;-46
2022/08/03 11:00:10;;;;;;;9.25;2.50;;;28.30;88.60;;;;;;5052169;28;20052;-46
2022/08/03 11:03:07;;;;;;;8.32;2.28;;;28.40;88.30;;;;;;5057804;28;20029;-47
2022/08/03 11:05:44;;;;;;;5.72;2.03;;;29.10;88.20;;;;;;5053984;28;20032;-51
2022/08/03 11:08:19;;;;;;;8.45;2.10;;;29.10;87.50;;;;;;5057320;28;20025;-49
2022/08/03 11:10:45;;;;;;;10.85;2.20;;;29.30;86.50;;;;;;5056002;28;20085;-52
2022/08/03 11:13:15;;;;;;;7.10;2.25;;;29.90;85.00;;;;;;5053248;28;20025;-48
2022/08/03 11:15:44;;;;;;;8.05;2.15;;;29.50;85.70;;;;;;5054786;28;20084;-50
2022/08/03 11:18:11;;;;;;;10.45;1.73;;;29.60;87.20;;;;;;5054646;28;20032;-50
2022/08/03 11:20:45;;;;;;;8.98;2.28;;;29.60;84.80;;;;;;5063278;28;20073;-49
2022/08/03 11:23:12;;;;;;;9.90;1.90;;;29.70;87.20;;;;;;5068762;28;20032;-46
2022/08/03 11:26:08;;;;;;;5.47;1.80;;;29.90;82.80;;;;;;5066817;28;20036;-49
2022/08/03 11:28:34;;;;;;;8.30;1.88;;;29.80;82.70;;;;;;5071150;28;20111;-49
2022/08/03 11:31:35;;;;;;;7.43;1.70;;;30.10;81.60;;;;;;5072436;28;20543;-54
2022/08/03 11:34:06;;;;;;;5.22;1.70;;;29.80;84.30;;;;;;5061900;28;20052;-52
2022/08/03 11:37:09;;;;;;;9.20;1.90;;;29.60;83.00;;;;;;5070368;28;20086;-50
2022/08/03 11:39:45;;;;;;;5.80;1.67;;;29.50;84.60;;;;;;5072075;28;20032;-50
2022/08/03 11:42:23;;;;;;;8.80;2.15;;;29.70;83.20;;;;;;5068884;28;20029;-55
2022/08/03 11:44:56;;;;;;;6.45;1.88;;;30.30;84.00;;;;;;5071951;28;20048;-50
2022/08/03 11:47:25;;;;;;;7.22;2.05;;;30.20;82.50;;;;;;5071983;28;20021;-48
2022/08/03 11:49:56;;;;;;;8.98;2.30;;;29.90;82.30;;;;;;5072061;28;21608;-53
2022/08/03 11:52:22;;;;;;;7.13;1.73;;;29.60;83.70;;;;;;5072090;28;20029;-56
2022/08/03 11:54:52;;;;;;;7.60;1.95;;;29.30;84.40;;;;;;5071982;28;20039;-50
2022/08/03 11:57:32;;;;;;;12.23;1.90;;;29.00;86.50;;;;;;5072066;28;20028;-49
2022/08/03 11:59:58;;;;;;;8.35;1.63;;;29.20;85.20;;;;;;5071701;28;20568;-51
2022/08/03 12:02:24;;;;;;;7.07;1.75;;;29.30;86.90;;;;;;5066154;28;20053;-49
2022/08/03 12:04:53;;;;;;;5.65;1.65;;;29.60;84.40;;;;;;5056748;28;20113;-46
2022/08/03 12:07:19;;;;;;;5.70;1.58;;;29.40;83.90;;;;;;5070355;28;20073;-47
2022/08/03 12:10:08;;;;;;;6.22;1.83;;;29.00;84.70;;;;;;5064631;28;20074;-47
2022/08/03 12:12:33;;;;;;;;;;;29.20;86.50;;;;;;5070242;28;20067;-49
2022/08/03 12:14:59;;;;;;;7.22;2.00;;;29.80;84.00;;;;;;5069824;28;20332;-54
2022/08/03 12:17:51;;;;;;;4.97;1.60;;;29.50;82.80;;;;;;5067576;28;20591;-51
2022/08/03 12:20:26;;;;;;;4.18;1.70;;;29.50;83.50;;;;;;5068887;28;20025;-50
2022/08/03 12:22:52;;;;;;;6.65;1.48;;;29.20;83.20;;;;;;5067143;28;20017;-52
2022/08/03 12:25:26;;;;;;;8.73;1.70;;;29.10;87.10;;;;;;5060850;28;20564;-50
2022/08/03 12:27:53;;;;;;;5.43;1.80;;;29.50;83.30;;;;;;5061206;28;20108;-46
2022/08/03 12:30:19;;;;;;;7.07;1.88;;;29.20;84.20;;;;;;5062951;28;20032;-50
2022/08/03 12:32:45;;;;;;;8.65;1.70;;;29.00;84.30;;;;;;5067467;28;20044;-49
2022/08/03 12:35:23;;;;;;;6.75;1.58;;;29.10;84.30;;;;;;5069529;28;20816;-48
2022/08/03 12:37:49;;;;;;;9.27;2.40;;;29.40;86.10;;;;;;5068739;28;20082;-46
2022/08/03 12:40:25;;;;;;;7.20;2.40;;;29.30;82.70;;;;;;5070249;28;20024;-50
2022/08/03 12:42:51;;;;;;;5.13;1.85;;;28.20;86.00;;;;;;5067894;28;20077;-50
2022/08/03 12:45:30;;;;;;;8.60;2.13;;;27.90;89.50;;;;;;5067926;28;20124;-47
2022/08/03 12:47:56;;;;;;;;;;;28.10;88.70;;;;;;5058099;28;20021;-45
2022/08/03 12:50:28;;;;;;;7.15;2.22;;;28.00;88.70;;;;;;5054842;28;20325;-52
2022/08/03 12:52:56;;;;;;;8.45;2.65;;;28.00;90.00;;;;;;5061454;28;20059;-51
2022/08/03 12:55:23;;;;;;;5.30;2.25;;;28.30;88.80;;;;;;5059217;28;20080;-53
2022/08/03 12:57:48;;;;;;;5.65;1.77;;;28.30;87.60;;;;;;5069668;28;20506;-47
2022/08/03 13:00:17;;;;;;;8.43;2.28;;;28.30;87.30;;;;;;5070597;28;20024;-55